Time;durP1;ratioP1;P1;durP2;ratioP2;P2;SDS_P1;SDS_P2;PMS_P1;PMS_P2;Temp;Humidity;BMP_temperature;BMP_pressure;BME280_temperature;BME280_humidity;BME280_pressure;Samples;Min_cycle;Max_cycle;Signal;HPM_P1;HPM_P2
2023/06/03 00:00:24;;;;;;;7.40;5.67;;;;;;;21.05;100.00;101015.47;2113114;28;20166;-65
2023/06/03 00:01:27;;;;;;;13.27;5.90;;;;;;;19.99;100.00;100856.91;2105719;28;20177;-66
2023/06/03 00:02:27;;;;;;;12.10;6.40;;;;;;;21.11;100.00;101021.94;2113071;28;20811;-65
2023/06/03 00:03:28;;;;;;;7.97;6.00;;;;;;;21.13;100.00;101025.00;2106870;28;20822;-66
2023/06/03 00:04:29;;;;;;;9.47;6.43;;;;;;;21.14;100.00;101023.72;2111433;28;20190;-65
2023/06/03 00:05:29;;;;;;;8.13;5.67;;;;;;;21.12;100.00;101023.47;2109135;28;21005;-65
2023/06/03 00:06:30;;;;;;;8.23;5.53;;;;;;;20.77;100.00;100976.94;2111260;28;20190;-65
2023/06/03 00:07:30;;;;;;;9.07;5.67;;;;;;;20.88;100.00;101020.06;2111152;28;20170;-66
2023/06/03 00:08:31;;;;;;;6.80;5.07;;;;;;;20.79;100.00;101005.34;2105526;28;20678;-65
2023/06/03 00:09:31;;;;;;;5.77;5.17;;;;;;;20.87;100.00;101031.84;2109937;28;20670;-65
2023/06/03 00:10:32;;;;;;;8.03;5.13;;;;;;;20.11;100.00;100928.94;2105281;28;20183;-66
2023/06/03 00:11:35;;;;;;;6.47;4.93;;;;;;;20.75;100.00;101041.41;2112813;28;20185;-65
2023/06/03 00:12:36;;;;;;;9.73;5.30;;;;;;;20.24;100.00;100976.47;2107432;28;20564;-65
2023/06/03 00:13:36;;;;;;;7.07;4.80;;;;;;;20.57;100.00;101034.00;2110618;28;20190;-66
2023/06/03 00:14:37;;;;;;;6.77;4.83;;;;;;;20.59;100.00;101036.31;2109424;28;20187;-66
2023/06/03 00:15:37;;;;;;;8.83;5.53;;;;;;;20.55;100.00;101033.72;2107457;28;20664;-65
2023/06/03 00:16:37;;;;;;;6.13;5.13;;;;;;;20.55;100.00;101038.56;2112075;28;20229;-66
2023/06/03 00:17:38;;;;;;;6.07;4.90;;;;;;;20.49;100.00;101034.91;2105194;28;20178;-66
2023/06/03 00:18:39;;;;;;;6.57;5.00;;;;;;;20.55;100.00;101045.00;2113815;28;20261;-66
2023/06/03 00:19:42;;;;;;;9.20;5.43;;;;;;;20.50;100.00;101039.25;2106245;28;20190;-66
2023/06/03 00:20:47;;;;;;;8.47;5.60;;;;;;;20.47;100.00;101052.28;2112170;28;20186;-66
2023/06/03 00:21:49;;;;;;;9.23;5.30;;;;;;;20.49;100.00;101048.97;2107711;28;20436;-66
2023/06/03 00:22:49;;;;;;;10.20;5.27;;;;;;;20.53;100.00;101046.75;2110595;28;20540;-67
2023/06/03 00:23:50;;;;;;;8.97;5.40;;;;;;;20.50;100.00;101056.16;2113742;28;20451;-67
2023/06/03 00:24:50;;;;;;;10.50;5.67;;;;;;;20.48;100.00;101056.66;2113772;28;20670;-67
2023/06/03 00:25:51;;;;;;;8.93;5.67;;;;;;;19.55;100.00;100928.59;2113682;28;20627;-67
2023/06/03 00:26:52;;;;;;;8.83;6.13;;;;;;;20.47;100.00;101057.91;2113302;28;20234;-67
2023/06/03 00:27:53;;;;;;;10.93;6.17;;;;;;;20.46;100.00;101061.25;2113931;28;20217;-67
2023/06/03 00:28:53;;;;;;;10.60;6.33;;;;;;;20.45;100.00;101060.44;2113608;28;20186;-66
2023/06/03 00:29:53;;;;;;;13.03;6.30;;;;;;;20.44;100.00;101063.75;2113735;28;20260;-67
2023/06/03 00:30:54;;;;;;;13.27;7.13;;;;;;;20.35;100.00;101061.06;2113019;28;20190;-66
2023/06/03 00:31:54;;;;;;;12.53;6.80;;;;;;;20.38;100.00;101069.31;2113618;28;20237;-66
2023/06/03 00:32:55;;;;;;;10.40;6.90;;;;;;;19.59;100.00;100948.84;2113900;28;20228;-66
2023/06/03 00:33:55;;;;;;;12.57;6.60;;;;;;;20.40;100.00;101075.22;2113650;28;20178;-66
2023/06/03 00:34:56;;;;;;;14.67;6.90;;;;;;;20.41;100.00;101073.19;2113861;28;20194;-66
2023/06/03 00:35:56;;;;;;;10.43;6.80;;;;;;;19.63;100.00;100950.19;2113820;28;20166;-66
2023/06/03 00:36:57;;;;;;;9.27;6.80;;;;;;;20.44;100.00;101087.06;2112929;28;20198;-66
2023/06/03 00:37:57;;;;;;;14.13;7.03;;;;;;;20.47;100.00;101086.06;2113567;28;20179;-67
2023/06/03 00:38:58;;;;;;;12.60;7.07;;;;;;;20.37;100.00;101078.25;2113567;28;20190;-66
2023/06/03 00:39:58;;;;;;;11.57;7.03;;;;;;;20.43;100.00;101087.53;2113579;28;20178;-66
2023/06/03 00:40:58;;;;;;;11.17;7.63;;;;;;;20.41;100.00;101092.91;2113653;28;20346;-66
2023/06/03 00:41:59;;;;;;;10.70;7.37;;;;;;;20.46;100.00;101098.59;2113742;28;20170;-66
2023/06/03 00:43:00;;;;;;;10.67;6.90;;;;;;;20.44;100.00;101109.59;2113693;28;20171;-66
2023/06/03 00:44:00;;;;;;;11.53;7.87;;;;;;;20.08;100.00;101061.41;2113883;28;20177;-66
2023/06/03 00:45:01;;;;;;;11.90;7.30;;;;;;;20.43;100.00;101110.06;2113810;28;20186;-66
2023/06/03 00:46:01;;;;;;;11.53;7.33;;;;;;;20.44;100.00;101109.59;2113578;28;20206;-66
2023/06/03 00:47:02;;;;;;;9.83;7.23;;;;;;;20.41;100.00;101116.19;2113419;28;20216;-66
2023/06/03 00:48:03;;;;;;;9.63;7.00;;;;;;;20.43;100.00;101108.03;2113682;28;20188;-66
2023/06/03 00:49:04;;;;;;;9.93;7.57;;;;;;;20.44;100.00;101103.94;2113315;28;20444;-66
2023/06/03 00:50:06;;;;;;;9.90;7.67;;;;;;;20.45;100.00;101111.13;2111708;28;20253;-66
2023/06/03 00:51:07;;;;;;;11.40;7.50;;;;;;;20.46;100.00;101115.50;2106221;28;20175;-66
2023/06/03 00:52:08;;;;;;;9.57;7.53;;;;;;;20.42;100.00;101109.28;2113655;28;20416;-66
2023/06/03 00:53:09;;;;;;;9.63;7.23;;;;;;;20.47;100.00;101124.72;2113764;28;20175;-66
2023/06/03 00:54:09;;;;;;;11.43;6.97;;;;;;;20.45;100.00;101119.56;2113797;28;20238;-66
2023/06/03 00:55:10;;;;;;;9.43;7.60;;;;;;;19.41;100.00;100961.06;2113491;28;20687;-66
2023/06/03 00:56:12;;;;;;;7.77;6.67;;;;;;;19.35;100.00;100957.34;2113473;28;20174;-66
2023/06/03 00:57:13;;;;;;;9.77;7.40;;;;;;;19.83;100.00;101040.25;2113329;28;20197;-66
2023/06/03 00:58:13;;;;;;;9.63;7.13;;;;;;;20.36;100.00;101125.31;2113667;28;20202;-67
2023/06/03 00:59:16;;;;;;;9.63;7.87;;;;;;;20.38;100.00;101119.97;2112441;28;20189;-66
2023/06/03 01:00:17;;;;;;;9.90;7.77;;;;;;;20.39;100.00;101117.94;2112948;28;20654;-66
2023/06/03 01:01:19;;;;;;;9.93;7.17;;;;;;;20.34;100.00;101122.22;2113922;28;20795;-67
2023/06/03 01:02:19;;;;;;;10.10;7.57;;;;;;;20.34;100.00;101118.63;2105979;28;20187;-66
2023/06/03 01:03:20;;;;;;;9.30;7.50;;;;;;;20.38;100.00;101116.38;2111798;28;20435;-66
2023/06/03 01:04:25;;;;;;;8.93;7.67;;;;;;;20.25;100.00;101111.06;2113694;28;20194;-66
2023/06/03 01:05:25;;;;;;;9.00;7.43;;;;;;;20.33;100.00;101111.44;2113627;28;20186;-67
2023/06/03 01:06:47;;;;;;;9.27;7.90;;;;;;;20.33;100.00;101106.59;2113415;28;20527;-66
2023/06/03 01:08:08;;;;;;;8.27;7.33;;;;;;;20.31;100.00;101108.34;2113711;28;20174;-66
2023/06/03 01:09:51;;;;;;;8.43;7.53;;;;;;;20.32;100.00;101116.28;2113523;28;20432;-66
2023/06/03 01:11:07;;;;;;;10.20;7.80;;;;;;;20.29;100.00;101110.84;2107212;28;20416;-66
2023/06/03 01:12:26;;;;;;;8.70;7.80;;;;;;;20.30;100.00;101109.59;2113447;28;20458;-66
2023/06/03 01:13:35;;;;;;;12.37;7.90;;;;;;;19.70;100.00;101025.69;2113574;28;20443;-67
2023/06/03 01:14:57;;;;;;;8.37;7.57;;;;;;;20.32;100.00;101110.66;2108966;28;20487;-66
2023/06/03 01:16:04;;;;;;;11.13;7.80;;;;;;;20.18;100.00;101090.97;2105089;28;20409;-67
2023/06/03 01:17:10;;;;;;;9.43;8.37;;;;;;;20.38;100.00;101114.34;2111108;28;20610;-66
2023/06/03 01:18:14;;;;;;;9.30;7.70;;;;;;;19.46;100.00;100974.44;2112158;28;20814;-66
2023/06/03 01:19:38;;;;;;;9.00;8.07;;;;;;;20.41;100.00;101104.91;2113381;28;20439;-66
2023/06/03 01:20:40;;;;;;;9.10;8.20;;;;;;;20.45;100.00;101108.31;2106270;28;20419;-66
2023/06/03 01:21:44;;;;;;;8.70;7.40;;;;;;;20.43;100.00;101101.63;2111607;28;20936;-66
2023/06/03 01:22:51;;;;;;;8.80;7.77;;;;;;;19.97;100.00;101027.44;2113646;28;21020;-67
2023/06/03 01:23:52;;;;;;;8.10;7.30;;;;;;;20.49;100.00;101108.09;2113656;28;20581;-67
2023/06/03 01:25:08;;;;;;;8.43;7.57;;;;;;;20.46;100.00;101107.03;2113556;28;20473;-67
2023/06/03 01:26:09;;;;;;;11.60;8.10;;;;;;;20.45;100.00;101102.69;2113570;28;20201;-66
2023/06/03 01:27:10;;;;;;;8.70;7.70;;;;;;;20.50;100.00;101104.81;2114492;28;20443;-66
2023/06/03 01:28:10;;;;;;;9.57;7.80;;;;;;;20.54;100.00;101115.88;2115011;28;20197;-66
2023/06/03 01:29:11;;;;;;;8.40;7.57;;;;;;;20.55;100.00;101103.31;2114794;28;20408;-66
2023/06/03 01:30:14;;;;;;;9.27;7.63;;;;;;;20.52;100.00;101110.72;2114974;28;20181;-66
2023/06/03 01:31:16;;;;;;;8.37;7.47;;;;;;;19.63;100.00;100969.09;2115343;28;20171;-66
2023/06/03 01:32:17;;;;;;;8.40;7.50;;;;;;;20.55;100.00;101101.31;2106831;28;20430;-66
2023/06/03 01:33:23;;;;;;;8.63;7.83;;;;;;;20.60;100.00;101103.44;2114151;28;20443;-67
2023/06/03 01:34:25;;;;;;;8.53;7.70;;;;;;;20.61;100.00;101104.19;2115064;28;20221;-66
2023/06/03 01:35:26;;;;;;;9.53;7.47;;;;;;;20.62;100.00;101102.94;2115081;28;20190;-67
2023/06/03 01:36:27;;;;;;;8.43;7.63;;;;;;;20.61;100.00;101107.78;2114890;28;20174;-66
2023/06/03 01:37:28;;;;;;;8.27;7.37;;;;;;;20.64;100.00;101111.66;2114704;28;20194;-66
2023/06/03 01:38:28;;;;;;;8.17;7.40;;;;;;;20.66;100.00;101112.72;2115094;28;20170;-66
2023/06/03 01:39:29;;;;;;;8.63;7.83;;;;;;;20.63;100.00;101110.88;2113302;28;20178;-67
2023/06/03 01:40:30;;;;;;;8.50;7.57;;;;;;;20.70;100.00;101118.16;2110238;28;20180;-66
2023/06/03 01:41:32;;;;;;;8.70;7.47;;;;;;;19.97;100.00;101002.91;2115121;28;20222;-67
2023/06/03 01:42:32;;;;;;;8.60;7.30;;;;;;;20.70;100.00;101113.31;2114782;28;20432;-66
2023/06/03 01:43:33;;;;;;;7.97;7.10;;;;;;;20.70;100.00;101116.13;2114961;28;20439;-66
2023/06/03 01:44:34;;;;;;;8.40;7.60;;;;;;;20.27;100.00;101045.84;2115133;28;20289;-66
2023/06/03 01:45:34;;;;;;;7.93;7.13;;;;;;;20.36;100.00;101057.75;2114959;28;20230;-66
2023/06/03 01:46:35;;;;;;;8.77;7.20;;;;;;;20.69;100.00;101116.59;2114820;28;20592;-66
2023/06/03 01:47:36;;;;;;;7.70;6.90;;;;;;;20.54;100.00;101079.25;2114608;28;20678;-66
2023/06/03 01:48:37;;;;;;;7.60;6.47;;;;;;;20.72;100.00;101099.50;2114736;28;20854;-66
2023/06/03 01:49:38;;;;;;;8.90;7.50;;;;;;;20.73;100.00;101105.91;2115011;28;20651;-67
2023/06/03 01:50:42;;;;;;;8.93;7.40;;;;;;;20.73;100.00;101112.31;2114858;28;20592;-66
2023/06/03 01:51:43;;;;;;;9.60;7.37;;;;;;;20.74;100.00;101107.47;2114980;28;20190;-66
2023/06/03 01:52:44;;;;;;;10.33;7.37;;;;;;;20.72;100.00;101110.75;2115052;28;20504;-67
2023/06/03 01:53:45;;;;;;;7.57;6.40;;;;;;;20.69;100.00;101105.34;2114978;28;20436;-66
2023/06/03 01:54:45;;;;;;;6.90;5.87;;;;;;;20.59;100.00;101109.53;2114826;28;20439;-66
2023/06/03 01:55:46;;;;;;;8.83;4.77;;;;;;;20.57;100.00;101110.03;2114773;28;20216;-66
2023/06/03 01:56:46;;;;;;;6.90;5.50;;;;;;;20.55;100.00;101103.31;2114108;28;20192;-66
2023/06/03 01:57:47;;;;;;;8.17;5.43;;;;;;;20.51;100.00;101106.34;2114911;28;20186;-66
2023/06/03 01:58:47;;;;;;;7.23;5.33;;;;;;;20.53;100.00;101103.81;2114759;28;20253;-66
2023/06/03 01:59:48;;;;;;;6.07;5.47;;;;;;;20.52;100.00;101101.50;2114960;28;20235;-66
2023/06/03 02:00:48;;;;;;;6.57;4.87;;;;;;;20.48;100.00;101098.91;2114859;28;20273;-66
2023/06/03 02:01:54;;;;;;;5.70;5.10;;;;;;;20.29;100.00;101083.50;2114964;28;20188;-66
2023/06/03 02:02:55;;;;;;;5.77;4.63;;;;;;;20.41;100.00;101098.53;2115086;28;20182;-66
2023/06/03 02:03:55;;;;;;;6.17;4.47;;;;;;;20.28;100.00;101098.06;2114621;28;20467;-66
2023/06/03 02:04:56;;;;;;;4.67;4.27;;;;;;;20.19;100.00;101093.31;2114211;28;20202;-66
2023/06/03 02:05:56;;;;;;;4.90;4.33;;;;;;;20.19;100.00;101095.34;2114057;28;20699;-66
2023/06/03 02:07:01;;;;;;;4.57;3.93;;;;;;;20.17;100.00;101095.81;2114277;28;20179;-67
2023/06/03 02:08:01;;;;;;;8.47;4.10;;;;;;;19.72;100.00;101025.22;2114875;27;20170;-66
2023/06/03 02:09:02;;;;;;;4.33;3.80;;;;;;;20.15;100.00;101089.91;2106257;28;20516;-66
2023/06/03 02:10:03;;;;;;;5.07;4.20;;;;;;;19.49;100.00;100995.19;2113492;28;20190;-66
2023/06/03 02:11:03;;;;;;;5.97;4.40;;;;;;;20.02;100.00;101077.38;2114839;28;20474;-66
2023/06/03 02:12:04;;;;;;;4.90;3.80;;;;;;;20.05;100.00;101090.50;2114672;28;20191;-66
2023/06/03 02:13:05;;;;;;;5.07;3.87;;;;;;;20.03;100.00;101095.81;2114849;28;20190;-66
2023/06/03 02:14:05;;;;;;;6.50;4.57;;;;;;;19.98;100.00;101099.31;2114591;28;20184;-66
2023/06/03 02:15:07;;;;;;;6.80;4.20;;;;;;;19.97;100.00;101086.50;2114364;27;20167;-66
2023/06/03 02:16:07;;;;;;;4.40;4.00;;;;;;;19.98;100.00;101094.47;2114520;28;20174;-66
2023/06/03 02:17:08;;;;;;;6.17;4.23;;;;;;;19.85;100.00;101067.91;2114541;28;20435;-66
2023/06/03 02:18:08;;;;;;;5.27;4.77;;;;;;;20.04;100.00;101095.34;2107110;28;20183;-66
2023/06/03 02:19:15;;;;;;;9.73;4.87;;;;;;;20.06;100.00;101097.66;2112445;28;20175;-66
2023/06/03 02:20:15;;;;;;;7.67;5.00;;;;;;;20.05;100.00;101096.88;2114842;28;20186;-66
2023/06/03 02:21:16;;;;;;;5.67;4.63;;;;;;;19.97;100.00;101095.75;2114628;28;20493;-66
2023/06/03 02:22:20;;;;;;;8.30;4.30;;;;;;;19.82;100.00;101080.09;2114774;28;20289;-67
2023/06/03 02:23:21;;;;;;;9.07;5.27;;;;;;;19.94;100.00;101093.09;2114757;28;20195;-67
2023/06/03 02:24:22;;;;;;;5.93;4.67;;;;;;;19.96;100.00;101091.34;2114665;28;20416;-66
2023/06/03 02:25:24;;;;;;;6.57;5.20;;;;;;;19.92;100.00;101095.63;2114429;28;20174;-66
2023/06/03 02:26:25;;;;;;;12.90;5.47;;;;;;;19.90;100.00;101103.78;2114861;28;20842;-66
2023/06/03 02:27:25;;;;;;;7.40;5.67;;;;;;;19.87;100.00;101104.75;2105896;28;20486;-67
2023/06/03 02:28:26;;;;;;;7.90;6.67;;;;;;;19.87;100.00;101107.56;2113515;28;20424;-66
2023/06/03 02:29:27;;;;;;;10.03;9.03;;;;;;;19.16;100.00;100997.34;2108207;28;20202;-66
2023/06/03 02:30:27;;;;;;;12.07;9.90;;;;;;;19.69;100.00;101108.50;2111241;28;20197;-66
2023/06/03 02:31:28;;;;;;;11.67;10.50;;;;;;;19.56;100.00;101110.84;2114712;28;20242;-66
2023/06/03 02:32:29;;;;;;;12.20;10.97;;;;;;;19.55;100.00;101106.44;2114399;28;20222;-68
2023/06/03 02:33:29;;;;;;;13.13;11.83;;;;;;;19.26;100.00;101067.06;2114644;28;20178;-66
2023/06/03 02:34:30;;;;;;;14.77;13.27;;;;;;;19.57;100.00;101106.75;2114590;28;20228;-66
2023/06/03 02:35:30;;;;;;;17.23;15.53;;;;;;;19.62;100.00;101113.72;2114769;28;20170;-66
2023/06/03 02:36:30;;;;;;;14.37;12.83;;;;;;;19.66;100.00;101117.91;2106757;28;20183;-66
2023/06/03 02:37:31;;;;;;;14.17;11.67;;;;;;;19.74;100.00;101123.91;2112245;28;20561;-66
2023/06/03 02:38:31;;;;;;;11.67;9.43;;;;;;;19.78;100.00;101122.50;2113573;28;20564;-66
2023/06/03 02:39:32;;;;;;;14.90;12.17;;;;;;;19.84;100.00;101122.56;2114090;28;20183;-67
2023/06/03 02:40:32;;;;;;;14.13;12.80;;;;;;;19.87;100.00;101119.59;2114509;28;20174;-67
2023/06/03 02:41:33;;;;;;;15.87;14.27;;;;;;;19.92;100.00;101123.75;2114456;28;20730;-66
2023/06/03 02:42:34;;;;;;;16.17;14.37;;;;;;;19.89;100.00;101125.50;2114469;28;20174;-66
2023/06/03 02:43:34;;;;;;;15.70;14.10;;;;;;;19.89;100.00;101124.72;2114716;28;20929;-66
2023/06/03 02:44:35;;;;;;;16.43;14.73;;;;;;;19.83;100.00;101127.44;2114468;28;20606;-67
2023/06/03 02:45:35;;;;;;;17.40;15.73;;;;;;;19.76;100.00;101121.41;2114602;28;20267;-66
2023/06/03 02:46:35;;;;;;;17.63;15.87;;;;;;;19.74;100.00;101119.09;2114392;28;20183;-66
2023/06/03 02:47:36;;;;;;;17.23;15.53;;;;;;;19.83;100.00;101123.84;2114094;28;20201;-67
2023/06/03 02:48:37;;;;;;;16.93;15.33;;;;;;;19.87;100.00;101124.44;2114288;28;20170;-66
2023/06/03 02:49:38;;;;;;;15.47;13.97;;;;;;;19.91;100.00;101130.66;2114353;28;20538;-66
2023/06/03 02:50:38;;;;;;;14.77;13.47;;;;;;;19.93;100.00;101128.91;2114336;28;20466;-66
2023/06/03 02:51:41;;;;;;;14.23;12.67;;;;;;;19.98;100.00;101136.66;2114376;28;20185;-67
2023/06/03 02:52:42;;;;;;;14.20;12.70;;;;;;;20.00;100.00;101122.88;2106140;28;20207;-67
2023/06/03 02:53:42;;;;;;;12.53;11.30;;;;;;;20.05;100.00;101129.88;2113909;28;20925;-66
2023/06/03 02:54:43;;;;;;;13.93;12.53;;;;;;;20.05;100.00;101135.50;2114425;28;20658;-66
2023/06/03 02:55:44;;;;;;;14.00;12.67;;;;;;;20.07;100.00;101135.78;2109158;28;20175;-67
2023/06/03 02:56:44;;;;;;;16.33;14.50;;;;;;;20.08;100.00;101129.72;2109586;28;20193;-67
2023/06/03 02:57:45;;;;;;;16.03;14.43;;;;;;;20.09;100.00;101136.88;2114518;28;20187;-67
2023/06/03 02:58:45;;;;;;;17.60;15.80;;;;;;;20.11;100.00;101134.34;2113948;28;20545;-66
2023/06/03 02:59:46;;;;;;;17.97;16.27;;;;;;;20.10;100.00;101135.63;2113825;28;20718;-66
2023/06/03 03:00:47;;;;;;;19.77;16.00;;;;;;;20.15;100.00;101134.94;2106001;28;20167;-66
2023/06/03 03:01:47;;;;;;;17.97;16.17;;;;;;;20.19;100.00;101134.75;2114144;28;20432;-66
2023/06/03 03:02:48;;;;;;;17.43;15.77;;;;;;;20.21;100.00;101135.81;2107606;28;20250;-66
2023/06/03 03:03:49;;;;;;;17.20;15.60;;;;;;;20.25;100.00;101141.22;2111736;28;20178;-66
2023/06/03 03:04:49;;;;;;;18.47;16.87;;;;;;;20.23;100.00;101138.94;2114351;28;20224;-67
2023/06/03 03:05:50;;;;;;;18.47;16.43;;;;;;;20.26;100.00;101143.56;2114231;28;20202;-66
2023/06/03 03:06:50;;;;;;;19.53;16.83;;;;;;;20.28;100.00;101143.88;2113710;28;20200;-66
2023/06/03 03:07:50;;;;;;;19.37;17.60;;;;;;;19.83;100.00;101064.78;2114304;28;20179;-66
2023/06/03 03:08:52;;;;;;;16.63;15.13;;;;;;;20.31;100.00;101130.88;2113888;28;20174;-66
2023/06/03 03:09:53;;;;;;;18.50;16.63;;;;;;;20.34;100.00;101139.09;2114522;28;20181;-66
2023/06/03 03:10:53;;;;;;;18.63;16.93;;;;;;;20.34;100.00;101136.28;2114229;28;20519;-66
2023/06/03 03:11:53;;;;;;;20.33;16.00;;;;;;;20.36;100.00;101133.75;2114260;28;20281;-66
2023/06/03 03:12:54;;;;;;;17.07;15.33;;;;;;;20.35;100.00;101137.84;2114242;28;20186;-66
2023/06/03 03:13:55;;;;;;;14.60;13.20;;;;;;;20.36;100.00;101135.81;2110168;28;20186;-66
2023/06/03 03:14:56;;;;;;;13.83;12.53;;;;;;;20.39;100.00;101137.63;2108670;28;20193;-66
2023/06/03 03:15:56;;;;;;;13.73;12.53;;;;;;;20.39;100.00;101132.78;2114145;28;20170;-66
2023/06/03 03:16:57;;;;;;;14.03;11.13;;;;;;;20.41;100.00;101135.88;2113534;28;20408;-66
2023/06/03 03:17:58;;;;;;;11.07;9.97;;;;;;;20.41;100.00;101138.69;2114511;28;20694;-66
2023/06/03 03:18:59;;;;;;;10.80;9.70;;;;;;;20.42;100.00;101137.44;2113875;28;20782;-66
2023/06/03 03:19:59;;;;;;;10.30;9.17;;;;;;;20.43;100.00;101150.25;2114183;28;20186;-66
2023/06/03 03:21:00;;;;;;;9.83;8.97;;;;;;;20.45;100.00;101138.50;2114384;28;20244;-67
2023/06/03 03:22:01;;;;;;;10.20;9.10;;;;;;;20.45;100.00;101136.47;2113197;28;20194;-66
2023/06/03 03:23:02;;;;;;;9.93;8.93;;;;;;;20.46;100.00;101131.63;2110332;28;20175;-66
2023/06/03 03:24:03;;;;;;;9.23;8.33;;;;;;;20.39;100.00;101121.53;2108043;28;20417;-66
2023/06/03 03:25:03;;;;;;;9.23;8.33;;;;;;;20.47;100.00;101138.81;2114296;28;20687;-66
2023/06/03 03:26:08;;;;;;;12.27;8.20;;;;;;;20.49;100.00;101131.41;2113852;28;20206;-66
2023/06/03 03:27:08;;;;;;;9.60;8.43;;;;;;;20.39;100.00;101120.75;2114003;28;20177;-66
2023/06/03 03:28:08;;;;;;;9.50;8.00;;;;;;;20.49;100.00;101134.22;2114013;28;21029;-66
2023/06/03 03:29:09;;;;;;;9.57;7.93;;;;;;;20.51;100.00;101128.88;2113906;28;20186;-66
2023/06/03 03:30:09;;;;;;;10.80;8.30;;;;;;;20.48;100.00;101129.88;2108557;28;20266;-66
2023/06/03 03:31:12;;;;;;;9.23;7.77;;;;;;;20.51;100.00;101133.72;2110206;28;20189;-67
2023/06/03 03:32:13;;;;;;;11.47;8.00;;;;;;;20.53;100.00;101128.41;2114057;28;20182;-66
2023/06/03 03:33:15;;;;;;;10.47;8.13;;;;;;;20.06;100.00;101072.34;2111050;28;20427;-66
2023/06/03 03:34:17;;;;;;;8.30;7.23;;;;;;;20.55;100.00;101135.09;2098300;28;20207;-66
2023/06/03 03:35:21;;;;;;;9.00;7.40;;;;;;;20.55;100.00;101137.91;2113123;28;20408;-66
2023/06/03 03:36:22;;;;;;;9.70;7.37;;;;;;;20.57;100.00;101128.97;2105725;28;20504;-66
2023/06/03 03:37:22;;;;;;;8.70;6.93;;;;;;;20.57;100.00;101138.19;2113454;28;20424;-66
2023/06/03 03:38:23;;;;;;;11.73;7.47;;;;;;;20.58;100.00;101130.53;2107100;28;20187;-67
2023/06/03 03:39:23;;;;;;;8.07;7.20;;;;;;;20.52;100.00;101133.25;2111438;28;20623;-66
2023/06/03 03:40:25;;;;;;;8.23;6.70;;;;;;;20.38;100.00;101114.34;2112117;28;20189;-66
2023/06/03 03:41:25;;;;;;;9.27;7.10;;;;;;;20.61;100.00;101147.22;2113945;28;20606;-66
2023/06/03 03:42:26;;;;;;;8.60;7.07;;;;;;;20.00;100.00;101040.53;2114056;28;20408;-66
2023/06/03 03:43:26;;;;;;;8.90;7.00;;;;;;;20.65;100.00;101147.00;2113929;28;20209;-66
2023/06/03 03:44:29;;;;;;;8.97;6.93;;;;;;;20.66;100.00;101149.34;2114015;28;20209;-66
2023/06/03 03:45:34;;;;;;;7.83;6.70;;;;;;;20.68;100.00;101148.84;2114225;28;20170;-66
2023/06/03 03:46:35;;;;;;;10.17;7.23;;;;;;;20.57;100.00;101132.56;2105852;28;20454;-66
2023/06/03 03:47:36;;;;;;;7.83;7.00;;;;;;;20.69;100.00;101142.75;2105368;28;20432;-66
2023/06/03 03:48:36;;;;;;;11.03;6.37;;;;;;;20.70;100.00;101141.47;2111764;28;20276;-66
2023/06/03 03:49:37;;;;;;;11.53;6.90;;;;;;;20.71;100.00;101145.03;2113678;28;20271;-66
2023/06/03 03:50:48;;;;;;;8.80;6.50;;;;;;;20.70;100.00;101141.47;2113849;28;20210;-66
2023/06/03 03:51:49;;;;;;;12.10;6.60;;;;;;;20.69;100.00;101137.09;2114094;28;20189;-66
2023/06/03 03:52:49;;;;;;;8.57;6.50;;;;;;;20.72;100.00;101144.56;2113730;28;20428;-66
2023/06/03 03:53:50;;;;;;;10.37;6.53;;;;;;;20.72;100.00;101140.97;2112044;28;20174;-66
2023/06/03 03:54:50;;;;;;;8.57;6.20;;;;;;;20.73;100.00;101136.91;2106407;28;20656;-66
2023/06/03 03:55:52;;;;;;;12.13;6.73;;;;;;;20.72;100.00;101136.09;2114182;28;20231;-66
2023/06/03 03:56:56;;;;;;;9.50;6.70;;;;;;;19.57;100.00;100959.78;2105205;28;20602;-66
2023/06/03 03:57:56;;;;;;;8.97;6.60;;;;;;;20.31;100.00;101080.19;2112349;28;20424;-66
2023/06/03 03:58:57;;;;;;;15.23;6.77;;;;;;;20.70;100.00;101138.66;2113146;28;20432;-66
2023/06/03 03:59:57;;;;;;;10.30;6.00;;;;;;;20.68;100.00;101140.41;2113859;28;20181;-65
2023/06/03 04:01:00;;;;;;;7.87;5.63;;;;;;;20.67;100.00;101156.50;2114029;28;20212;-67
2023/06/03 04:02:01;;;;;;;11.00;6.60;;;;;;;20.65;100.00;101138.56;2113761;28;20238;-66
2023/06/03 04:03:02;;;;;;;9.13;6.37;;;;;;;20.66;100.00;101142.91;2111897;28;20420;-66
2023/06/03 04:04:05;;;;;;;9.20;6.27;;;;;;;20.67;100.00;101139.63;2106384;28;20167;-65
2023/06/03 04:05:06;;;;;;;12.60;5.77;;;;;;;20.70;100.00;101143.50;2114019;28;20201;-66
2023/06/03 04:06:08;;;;;;;11.00;6.70;;;;;;;20.72;100.00;101149.44;2113877;28;20456;-66
2023/06/03 04:07:14;;;;;;;11.20;6.50;;;;;;;20.72;100.00;101143.81;2113568;28;20674;-65
2023/06/03 04:08:38;;;;;;;10.23;6.57;;;;;;;20.73;100.00;101148.16;2113959;28;20411;-66
2023/06/03 04:09:39;;;;;;;9.37;5.77;;;;;;;20.45;100.00;101107.53;2105544;28;20554;-65
2023/06/03 04:10:39;;;;;;;13.70;6.90;;;;;;;20.69;100.00;101147.59;2105560;28;20917;-66
2023/06/03 04:11:44;;;;;;;8.07;6.63;;;;;;;20.37;100.00;101117.66;2113056;28;20808;-66
2023/06/03 04:12:46;;;;;;;11.23;6.53;;;;;;;20.70;100.00;101147.09;2113617;28;20629;-66
2023/06/03 04:13:46;;;;;;;10.43;6.37;;;;;;;20.71;100.00;101147.84;2113943;28;20446;-66
2023/06/03 04:14:49;;;;;;;7.67;6.63;;;;;;;20.73;100.00;101150.97;2109262;28;20416;-66
2023/06/03 04:15:51;;;;;;;10.07;6.83;;;;;;;20.73;100.00;101154.56;2109147;28;20185;-66
2023/06/03 04:16:59;;;;;;;7.37;6.60;;;;;;;20.74;100.00;101146.88;2113265;28;20427;-66
2023/06/03 04:18:00;;;;;;;8.20;6.30;;;;;;;20.72;100.00;101153.00;2113624;28;20421;-66
2023/06/03 04:19:06;;;;;;;9.93;6.77;;;;;;;20.19;100.00;101076.44;2113479;28;20465;-66
2023/06/03 04:20:35;;;;;;;10.67;6.90;;;;;;;20.71;100.00;101159.91;2113713;28;20979;-66
2023/06/03 04:21:37;;;;;;;8.30;7.40;;;;;;;19.93;100.00;101030.44;2113956;28;20424;-65
2023/06/03 04:22:38;;;;;;;9.10;7.00;;;;;;;20.76;100.00;101162.03;2113830;28;20444;-66
2023/06/03 04:23:38;;;;;;;10.93;7.20;;;;;;;20.80;100.00;101168.25;2113866;28;20416;-66
2023/06/03 04:24:42;;;;;;;13.10;7.20;;;;;;;20.80;100.00;101162.63;2113758;28;20176;-66
2023/06/03 04:25:43;;;;;;;13.57;6.90;;;;;;;20.83;100.00;101166.50;2113679;28;20200;-67
2023/06/03 04:26:43;;;;;;;8.97;6.63;;;;;;;20.30;100.00;101081.44;2113650;28;20436;-66
2023/06/03 04:27:44;;;;;;;10.93;7.00;;;;;;;20.83;100.00;101163.69;2113010;28;21026;-66
2023/06/03 04:28:44;;;;;;;10.83;6.90;;;;;;;20.83;100.00;101163.69;2106465;28;20628;-66
2023/06/03 04:29:45;;;;;;;8.83;6.77;;;;;;;20.83;100.00;101163.69;2110670;28;20291;-66
2023/06/03 04:30:45;;;;;;;8.80;6.90;;;;;;;20.87;100.00;101162.19;2113633;28;20205;-65
2023/06/03 04:31:45;;;;;;;9.73;6.63;;;;;;;20.88;100.00;101168.63;2113865;28;20636;-65
2023/06/03 04:32:47;;;;;;;10.57;7.47;;;;;;;20.87;100.00;101167.84;2112925;28;20675;-66
2023/06/03 04:33:49;;;;;;;11.30;7.13;;;;;;;20.88;100.00;101175.00;2113099;28;20244;-66
2023/06/03 04:34:54;;;;;;;10.60;6.93;;;;;;;20.73;100.00;101143.28;2113999;28;20412;-66
2023/06/03 04:35:54;;;;;;;8.53;6.97;;;;;;;20.91;100.00;101165.63;2114074;28;20415;-66
2023/06/03 04:36:54;;;;;;;9.13;6.37;;;;;;;20.54;100.00;101107.41;2112927;28;20444;-66
2023/06/03 04:37:57;;;;;;;12.77;7.93;;;;;;;20.97;100.00;101165.69;2113725;28;20238;-66
2023/06/03 04:38:58;;;;;;;11.70;6.87;;;;;;;20.98;100.00;101168.00;2113587;28;20218;-66
2023/06/03 04:39:58;;;;;;;9.60;6.97;;;;;;;20.98;100.00;101161.63;2113491;28;20457;-66
2023/06/03 04:41:01;;;;;;;8.97;7.30;;;;;;;20.98;100.00;101167.25;2113538;28;20513;-67
2023/06/03 04:42:02;;;;;;;9.30;6.40;;;;;;;20.98;100.00;101159.56;2113037;28;20292;-66
2023/06/03 04:43:03;;;;;;;8.43;6.73;;;;;;;21.00;100.00;101167.53;2113190;28;20469;-66